Time;durP1;ratioP1;P1;durP2;ratioP2;P2;SDS_P1;SDS_P2;PMS_P1;PMS_P2;Temp;Humidity;BMP_temperature;BMP_pressure;BME280_temperature;BME280_humidity;BME280_pressure;Samples;Min_cycle;Max_cycle;Signal;HPM_P1;HPM_P2
2021/07/27 00:00:02;;;;;;;3.42;3.13;;;;;;;22.87;58.62;99108.94;5032875;28;20320;-88
2021/07/27 00:02:36;;;;;;;3.15;2.90;;;;;;;22.78;58.55;99091.69;5017412;28;20222;-85
2021/07/27 00:05:03;;;;;;;2.95;2.67;;;;;;;22.94;58.20;99108.50;5016973;28;20223;-88
2021/07/27 00:07:30;;;;;;;2.85;2.65;;;;;;;22.78;58.48;99097.16;5033469;28;20236;-87
2021/07/27 00:09:57;;;;;;;3.22;2.30;;;;;;;22.73;58.57;99113.66;5016720;28;20295;-87
2021/07/27 00:12:24;;;;;;;2.42;2.22;;;;;;;22.81;58.18;99112.94;5016340;28;20253;-85
2021/07/27 00:14:50;;;;;;;2.20;2.00;;;;;;;22.54;58.78;99135.66;5033320;28;20690;-86
2021/07/27 00:17:17;;;;;;;2.47;2.27;;;;;;;22.48;58.98;99133.38;5016685;28;20607;-85
2021/07/27 00:19:44;;;;;;;3.23;2.10;;;;;;;22.39;59.23;99152.41;5033143;28;20264;-86
2021/07/27 00:22:11;;;;;;;2.10;1.92;;;;;;;22.34;59.23;99136.97;5000277;28;20292;-88
2021/07/27 00:24:38;;;;;;;2.20;2.00;;;;;;;22.17;59.65;99136.00;5016631;28;20528;-88
2021/07/27 00:27:05;;;;;;;2.10;2.00;;;;;;;22.11;59.82;99145.44;5033044;28;20234;-88
2021/07/27 00:29:33;;;;;;;2.20;2.00;;;;;;;22.13;59.63;99156.81;5049666;28;20249;-87
2021/07/27 00:32:00;;;;;;;2.10;1.90;;;;;;;21.95;60.09;99153.94;5048801;28;20235;-88
2021/07/27 00:34:27;;;;;;;2.10;2.00;;;;;;;21.86;60.47;99160.38;5016396;28;20227;-87
2021/07/27 00:36:54;;;;;;;2.07;1.90;;;;;;;21.79;61.11;99176.34;5049455;28;20515;-87
2021/07/27 00:39:21;;;;;;;2.20;2.00;;;;;;;21.67;61.34;99170.59;5049244;28;20227;-88
2021/07/27 00:41:48;;;;;;;2.70;2.07;;;;;;;21.78;61.34;99172.00;4999921;28;20237;-88
2021/07/27 00:44:15;;;;;;;2.23;2.00;;;;;;;21.65;61.57;99167.38;5015691;28;20302;-87
2021/07/27 00:46:41;;;;;;;2.10;1.90;;;;;;;21.61;61.30;99164.41;5048918;28;20313;-87
2021/07/27 00:49:09;;;;;;;2.63;1.70;;;;;;;21.55;61.73;99167.56;5016303;28;20349;-87
2021/07/27 00:51:35;;;;;;;1.87;1.77;;;;;;;21.58;61.59;99166.94;5016370;28;20262;-87
2021/07/27 00:54:02;;;;;;;1.98;1.88;;;;;;;21.60;61.77;99168.28;5048840;28;20260;-88
2021/07/27 00:56:29;;;;;;;2.20;2.00;;;;;;;21.49;62.14;99158.66;5000170;28;20280;-88
2021/07/27 00:58:56;;;;;;;1.83;1.73;;;;;;;21.47;62.66;99155.44;5016031;28;20277;-88
2021/07/27 01:01:23;;;;;;;1.93;1.83;;;;;;;21.43;62.86;99165.31;4999870;28;20310;-88
2021/07/27 01:03:50;;;;;;;2.00;1.90;;;;;;;21.28;63.76;99157.44;5049019;28;20240;-88
2021/07/27 01:06:16;;;;;;;1.77;1.67;;;;;;;21.29;63.51;99165.31;5048543;28;20229;-87
2021/07/27 01:08:45;;;;;;;2.25;2.00;;;;;;;21.21;63.49;99168.72;5015971;28;20564;-87
2021/07/27 01:11:22;;;;;;;1.90;1.80;;;;;;;21.14;63.85;99171.03;5032002;28;20237;-87
2021/07/27 01:13:49;;;;;;;2.13;1.70;;;;;;;21.05;64.04;99161.91;5015705;28;20234;-88
2021/07/27 01:16:16;;;;;;;2.20;2.00;;;;;;;21.16;64.33;99184.34;5031311;28;20236;-87
2021/07/27 01:18:56;;;;;;;1.80;1.70;;;;;;;21.04;64.57;99173.91;5015782;28;20257;-87
2021/07/27 01:38:10;;;;;;;2.27;1.90;;;;;;;20.61;66.68;99143.31;5015447;28;20281;-88
2021/07/27 01:41:00;;;;;;;2.13;1.90;;;;;;;20.54;67.01;99162.75;5013232;28;20230;-88
2021/07/27 01:43:30;;;;;;;2.00;1.90;;;;;;;20.43;67.93;99166.75;5018535;28;20296;-88
2021/07/27 01:45:59;;;;;;;2.50;1.93;;;;;;;20.38;67.62;99166.81;5031152;28;20289;-88
2021/07/27 01:48:25;;;;;;;2.90;1.93;;;;;;;20.39;67.72;99157.53;5014649;28;20518;-88
2021/07/27 01:50:52;;;;;;;1.93;1.83;;;;;;;20.23;68.34;99150.69;4998674;28;20284;-86
2021/07/27 01:53:28;;;;;;;2.60;2.07;;;;;;;20.09;68.74;99144.34;4998946;28;20258;-87
2021/07/27 01:55:55;;;;;;;2.53;2.03;;;;;;;20.03;68.96;99151.75;4998913;28;20230;-87
2021/07/27 01:58:22;;;;;;;2.80;1.80;;;;;;;19.86;69.24;99148.75;4998189;28;20325;-86
2021/07/27 02:00:49;;;;;;;2.47;1.80;;;;;;;19.79;69.12;99143.66;5031195;28;20239;-85
2021/07/27 02:03:16;;;;;;;2.20;2.00;;;;;;;19.73;69.89;99155.69;4998491;28;20281;-86
2021/07/27 02:05:44;;;;;;;2.90;1.80;;;;;;;19.68;69.87;99158.47;5031089;28;20267;-87
2021/07/27 02:08:14;;;;;;;2.13;1.87;;;;;;;19.62;70.63;99156.09;5030730;28;20625;-85
2021/07/27 02:10:44;;;;;;;2.33;1.80;;;;;;;19.61;70.07;99160.72;4998602;28;20230;-87
2021/07/27 02:13:24;;;;;;;1.80;1.70;;;;;;;19.61;69.79;99155.28;5054220;28;20634;-87
2021/07/27 02:15:51;;;;;;;1.80;1.70;;;;;;;19.56;70.32;99165.41;5019636;28;20236;-87
2021/07/27 02:18:17;;;;;;;2.03;1.83;;;;;;;19.51;70.33;99169.00;5017416;28;20311;-87
2021/07/27 02:20:44;;;;;;;2.23;1.90;;;;;;;19.51;70.75;99166.28;5034300;28;20246;-87
2021/07/27 02:23:11;;;;;;;2.10;2.00;;;;;;;19.53;70.41;99174.16;5033486;28;20308;-85
2021/07/27 02:25:38;;;;;;;2.03;1.93;;;;;;;19.47;70.92;99159.00;5016587;28;20706;-88
2021/07/27 02:28:06;;;;;;;2.20;2.10;;;;;;;19.39;70.62;99144.13;5001157;28;20319;-87
2021/07/27 02:30:37;;;;;;;2.23;2.07;;;;;;;19.38;70.72;99145.19;5034252;28;20269;-88
2021/07/27 02:33:04;;;;;;;2.27;2.07;;;;;;;19.38;70.39;99141.69;5018569;28;20246;-87
2021/07/27 02:35:33;;;;;;;2.30;2.10;;;;;;;19.36;70.79;99152.84;5017609;28;20507;-87
2021/07/27 02:38:00;;;;;;;2.20;2.00;;;;;;;19.29;70.64;99158.63;5034186;28;20292;-88
2021/07/27 02:40:27;;;;;;;2.30;2.10;;;;;;;19.31;70.79;99163.75;5033827;28;20588;-88
2021/07/27 02:42:54;;;;;;;2.40;2.20;;;;;;;19.27;71.04;99162.72;5017826;28;20230;-88
2021/07/27 02:45:20;;;;;;;2.47;2.00;;;;;;;19.29;70.67;99169.47;5034320;28;20250;-88
2021/07/27 02:47:47;;;;;;;2.40;2.20;;;;;;;19.22;70.76;99157.34;5034554;28;20224;-88
2021/07/27 02:50:14;;;;;;;2.27;2.10;;;;;;;19.23;71.04;99156.22;5017603;28;20571;-88
2021/07/27 02:52:44;;;;;;;2.60;2.20;;;;;;;19.25;71.08;99165.72;5007168;28;20226;-88
2021/07/27 02:55:11;;;;;;;2.10;2.00;;;;;;;19.17;71.07;99149.25;5037616;28;20227;-88
2021/07/27 02:57:39;;;;;;;2.50;2.30;;;;;;;19.22;71.33;99165.50;5037447;28;20255;-88
2021/07/27 03:00:07;;;;;;;3.03;2.37;;;;;;;19.17;71.43;99166.34;5053335;28;20289;-87
2021/07/27 03:02:38;;;;;;;2.30;2.10;;;;;;;19.24;71.86;99177.66;5021240;28;20243;-87
2021/07/27 03:05:07;;;;;;;2.47;2.10;;;;;;;19.22;72.11;99188.00;5045000;28;20254;-88
2021/07/27 03:10:19;;;;;;;2.60;2.40;;;;;;;19.15;72.09;99178.56;5018653;28;20239;-88
2021/07/27 03:12:54;;;;;;;2.73;2.53;;;;;;;19.14;71.98;99185.09;5034025;28;20235;-88
2021/07/27 03:15:26;;;;;;;3.43;2.43;;;;;;;19.17;71.74;99189.97;5019002;28;20241;-88
2021/07/27 03:17:54;;;;;;;2.47;2.27;;;;;;;19.14;72.11;99193.25;5022092;28;20236;-88
2021/07/27 03:20:21;;;;;;;2.60;2.40;;;;;;;19.09;71.79;99188.66;5024243;28;20284;-88
2021/07/27 03:22:52;;;;;;;2.40;2.20;;;;;;;19.04;72.34;99191.44;5042016;28;20231;-88
2021/07/27 03:25:19;;;;;;;2.77;2.57;;;;;;;19.12;72.48;99206.31;5041832;28;20236;-88
2021/07/27 03:27:47;;;;;;;3.23;2.63;;;;;;;19.11;72.41;99212.84;5043904;28;20228;-87
2021/07/27 03:30:23;;;;;;;2.60;2.40;;;;;;;19.08;72.40;99202.56;5056269;28;20283;-88
2021/07/27 03:32:50;;;;;;;3.07;2.77;;;;;;;19.01;72.50;99193.91;5041816;28;20225;-88
2021/07/27 03:35:20;;;;;;;2.63;2.43;;;;;;;19.06;72.75;99202.00;5031208;28;20292;-87
2021/07/27 03:37:47;;;;;;;3.13;2.50;;;;;;;19.04;72.77;99188.72;5037931;28;20230;-88
2021/07/27 03:40:14;;;;;;;2.70;2.50;;;;;;;19.06;72.35;99188.44;5023081;28;20280;-88
2021/07/27 03:42:42;;;;;;;3.33;2.40;;;;;;;19.04;72.86;99188.72;5021374;28;20323;-87
2021/07/27 03:45:10;;;;;;;2.77;2.57;;;;;;;19.08;72.68;99188.97;5030935;28;20249;-88
2021/07/27 03:47:37;;;;;;;2.67;2.43;;;;;;;19.08;72.40;99197.13;5041252;28;20251;-88
2021/07/27 03:50:04;;;;;;;3.13;2.60;;;;;;;19.11;72.66;99199.25;5040057;28;20248;-88
2021/07/27 03:52:30;;;;;;;3.07;2.60;;;;;;;19.10;73.02;99203.88;5021398;28;20280;-87
2021/07/27 03:54:57;;;;;;;3.50;2.60;;;;;;;19.15;73.18;99201.13;5021297;28;20223;-88
2021/07/27 03:57:24;;;;;;;3.00;2.80;;;;;;;19.26;72.90;99212.69;5054208;28;20648;-88
2021/07/27 03:59:51;;;;;;;2.90;2.60;;;;;;;19.28;72.56;99227.59;5021236;28;20511;-88
2021/07/27 04:02:18;;;;;;;3.17;2.60;;;;;;;19.38;72.73;99234.03;5021271;28;20314;-88
2021/07/27 04:04:48;;;;;;;3.27;2.87;;;;;;;19.85;72.10;99265.91;5011193;28;20260;-88
2021/07/27 04:07:16;;;;;;;2.70;2.50;;;;;;;21.05;67.82;99293.44;5040958;28;20224;-88
2021/07/27 04:09:43;;;;;;;4.40;2.80;;;;;;;22.18;63.12;99306.78;5040877;28;20600;-88
2021/07/27 04:12:10;;;;;;;2.60;2.40;;;;;;;23.30;59.05;99348.84;5022872;28;20242;-87
2021/07/27 04:14:36;;;;;;;2.53;2.33;;;;;;;24.27;55.94;99362.53;5036803;28;20315;-88
2021/07/27 04:17:03;;;;;;;3.10;2.20;;;;;;;24.91;54.11;99262.34;5002670;28;20360;-88
2021/07/27 04:19:30;;;;;;;2.67;2.40;;;;;;;25.34;52.47;99254.03;5014158;28;20318;-88
2021/07/27 04:21:57;;;;;;;2.83;2.40;;;;;;;24.89;52.92;99269.25;4981750;28;20234;-88
2021/07/27 04:24:24;;;;;;;2.73;2.50;;;;;;;24.14;55.31;99265.69;5013888;28;20626;-85
2021/07/27 04:26:50;;;;;;;3.13;2.60;;;;;;;23.62;57.27;99259.19;4997284;28;20317;-88
2021/07/27 04:29:18;;;;;;;3.17;2.38;;;;;;;23.19;58.90;99264.38;5014053;28;20314;-86
2021/07/27 04:31:48;;;;;;;2.50;2.30;;;;;;;22.81;60.21;99260.41;4981858;28;20655;-87
2021/07/27 04:34:15;;;;;;;3.20;2.27;;;;;;;22.44;61.78;99269.66;4997429;28;20232;-87
2021/07/27 04:36:42;;;;;;;2.83;2.53;;;;;;;22.36;61.34;99273.09;4999510;28;20258;-87
2021/07/27 04:39:09;;;;;;;2.37;2.17;;;;;;;22.27;62.10;99264.81;5022489;28;20234;-85
2021/07/27 04:41:36;;;;;;;3.70;2.50;;;;;;;22.43;61.84;99284.44;5016284;28;20323;-85
2021/07/27 04:44:06;;;;;;;2.77;2.57;;;;;;;22.38;62.14;99270.88;5032058;28;20309;-85
2021/07/27 04:46:36;;;;;;;2.63;2.30;;;;;;;22.47;61.12;99273.69;4995805;28;20240;-84
2021/07/27 04:49:03;;;;;;;2.65;2.45;;;;;;;22.63;60.71;99275.78;4996547;28;20307;-84
2021/07/27 04:51:30;;;;;;;3.07;2.47;;;;;;;22.81;60.65;99284.97;4997739;28;20613;-85
2021/07/27 04:54:04;;;;;;;3.25;2.28;;;;;;;22.88;60.15;99282.63;5012337;28;20245;-84
2021/07/27 04:56:34;;;;;;;3.03;2.50;;;;;;;23.06;59.29;99284.38;5032554;28;20282;-84
2021/07/27 04:59:01;;;;;;;3.00;2.38;;;;;;;23.19;58.99;99294.44;4999855;28;20230;-84
2021/07/27 05:01:28;;;;;;;3.42;2.40;;;;;;;23.34;57.92;99295.19;5015154;28;20234;-84
2021/07/27 05:03:58;;;;;;;2.45;2.25;;;;;;;23.45;57.12;99288.38;4997662;28;20307;-84
2021/07/27 05:06:25;;;;;;;2.65;2.20;;;;;;;23.63;57.64;99298.28;5013632;28;20641;-84
2021/07/27 05:08:52;;;;;;;2.83;2.30;;;;;;;23.67;55.65;99296.53;5015537;28;20265;-85
2021/07/27 05:11:18;;;;;;;2.70;2.00;;;;;;;23.71;56.93;99300.25;5015263;28;20333;-85
2021/07/27 05:13:45;;;;;;;2.20;2.00;;;;;;;23.84;55.51;99306.78;5032579;28;20313;-83
2021/07/27 05:16:13;;;;;;;2.88;2.17;;;;;;;24.11;55.53;99309.31;5015124;28;20292;-84
2021/07/27 05:18:40;;;;;;;2.72;2.20;;;;;;;24.27;56.01;99318.72;4998829;28;20656;-84
2021/07/27 05:21:06;;;;;;;2.40;1.92;;;;;;;24.46;56.15;99307.50;5030429;28;20227;-84
2021/07/27 05:23:33;;;;;;;2.20;2.00;;;;;;;24.64;56.28;99319.28;5015102;28;20228;-84
2021/07/27 05:26:04;;;;;;;2.85;2.20;;;;;;;24.80;56.24;99315.78;5015060;28;20251;-83
2021/07/27 05:28:31;;;;;;;2.50;2.30;;;;;;;25.05;55.23;99332.63;4998970;28;20239;-84
2021/07/27 05:30:57;;;;;;;2.83;2.40;;;;;;;25.08;54.05;99313.59;5015488;28;20688;-84
2021/07/27 05:33:27;;;;;;;2.20;2.00;;;;;;;25.26;53.62;99331.63;5015514;28;20231;-83
2021/07/27 05:35:54;;;;;;;2.67;2.17;;;;;;;25.34;52.90;99319.84;5015246;28;20241;-83
2021/07/27 05:38:21;;;;;;;2.30;2.10;;;;;;;25.28;52.00;99318.41;4995248;28;20409;-83
2021/07/27 05:40:53;;;;;;;2.30;2.10;;;;;;;25.38;50.47;99323.53;4995214;28;20258;-84
2021/07/27 05:43:19;;;;;;;2.95;1.80;;;;;;;25.50;49.67;99316.59;4995326;28;20255;-84
2021/07/27 05:45:46;;;;;;;2.55;1.98;;;;;;;25.55;49.40;99341.16;5011370;28;20589;-84
2021/07/27 05:48:13;;;;;;;2.92;2.00;;;;;;;25.70;49.42;99338.72;4996877;28;20241;-84
2021/07/27 05:50:40;;;;;;;3.08;2.47;;;;;;;25.88;50.40;99335.91;5026091;28;20250;-84
2021/07/27 05:53:07;;;;;;;4.15;2.78;;;;;;;26.03;50.82;99338.13;4995179;28;20231;-84
2021/07/27 05:55:33;;;;;;;3.28;2.30;;;;;;;26.30;49.89;99337.72;4995057;28;20728;-84
2021/07/27 05:58:00;;;;;;;2.65;2.45;;;;;;;26.38;50.03;99331.38;4976659;28;20257;-83
2021/07/27 06:00:27;;;;;;;3.92;2.72;;;;;;;26.49;49.10;99326.31;4994029;28;20227;-84
2021/07/27 06:02:54;;;;;;;2.47;2.28;;;;;;;26.72;48.14;99328.44;4993810;28;20262;-84
2021/07/27 06:05:20;;;;;;;3.25;2.17;;;;;;;26.96;48.15;99327.00;4978207;28;20649;-83
2021/07/27 06:07:47;;;;;;;2.22;2.03;;;;;;;27.23;47.50;99329.22;4996155;28;20257;-83
2021/07/27 06:10:14;;;;;;;2.10;1.90;;;;;;;27.64;47.04;99342.13;4994589;28;20670;-83
2021/07/27 06:12:41;;;;;;;3.10;2.20;;;;;;;28.08;45.26;99342.47;4995074;28;20230;-82
2021/07/27 06:15:08;;;;;;;2.90;2.05;;;;;;;28.43;43.61;99340.91;4978609;28;20230;-84
2021/07/27 06:17:35;;;;;;;3.08;1.90;;;;;;;28.62;42.85;99335.59;4994700;28;20362;-84
2021/07/27 06:20:02;;;;;;;3.03;2.08;;;;;;;28.89;42.60;99345.13;4994581;28;20311;-83
2021/07/27 06:22:29;;;;;;;2.88;2.10;;;;;;;28.95;42.86;99342.94;5014157;28;20630;-82
2021/07/27 06:24:57;;;;;;;3.75;2.30;;;;;;;28.54;42.98;99342.06;5030865;28;20321;-84
2021/07/27 06:27:24;;;;;;;2.60;2.17;;;;;;;28.24;43.21;99343.41;5014317;28;20230;-83
2021/07/27 06:29:51;;;;;;;2.20;2.10;;;;;;;28.46;42.74;99338.25;5014315;28;20238;-82
2021/07/27 06:32:18;;;;;;;3.85;2.00;;;;;;;28.45;42.99;99339.41;5013930;28;20226;-85
2021/07/27 06:34:45;;;;;;;2.13;1.92;;;;;;;28.36;43.26;99341.50;5014183;28;20674;-86
2021/07/27 06:37:12;;;;;;;4.10;2.30;;;;;;;28.52;43.18;99354.56;5004363;28;20278;-86
2021/07/27 06:39:39;;;;;;;2.47;2.28;;;;;;;28.53;42.01;99359.72;4994631;28;20250;-87
2021/07/27 06:42:06;;;;;;;2.10;2.00;;;;;;;28.56;42.15;99353.53;4994062;28;20259;-85
2021/07/27 06:44:33;;;;;;;2.83;2.22;;;;;;;28.59;42.00;99357.56;4994604;28;20258;-85
2021/07/27 06:46:59;;;;;;;2.58;2.38;;;;;;;28.54;41.96;99353.06;5010900;28;20223;-86
2021/07/27 06:49:26;;;;;;;2.28;2.08;;;;;;;28.30;42.12;99358.56;4995265;28;20235;-85
2021/07/27 06:51:54;;;;;;;2.15;1.95;;;;;;;28.30;42.77;99351.13;4998797;28;20286;-84
2021/07/27 06:54:20;;;;;;;5.00;2.00;;;;;;;28.35;43.13;99364.66;5016467;28;20257;-85
2021/07/27 06:56:47;;;;;;;2.42;2.22;;;;;;;28.33;43.03;99355.13;5018112;28;20242;-86
2021/07/27 06:59:14;;;;;;;2.63;2.28;;;;;;;28.40;42.46;99353.44;5018087;28;20226;-87
2021/07/27 07:01:41;;;;;;;3.15;2.50;;;;;;;28.25;42.29;99365.13;5018025;28;20226;-85
2021/07/27 07:04:08;;;;;;;2.10;2.00;;;;;;;28.49;42.33;99352.50;5033914;28;20227;-86
2021/07/27 07:06:35;;;;;;;4.57;2.30;;;;;;;28.73;41.59;99372.63;5017848;28;20687;-86
2021/07/27 07:09:02;;;;;;;3.03;2.25;;;;;;;28.57;41.63;99374.41;5001911;28;20313;-86
2021/07/27 07:11:29;;;;;;;2.85;2.28;;;;;;;28.72;40.91;99370.19;5010226;28;20230;-85
2021/07/27 07:13:55;;;;;;;2.35;2.15;;;;;;;28.67;40.03;99362.94;5017572;28;20227;-86
2021/07/27 07:16:22;;;;;;;2.33;2.13;;;;;;;28.89;40.40;99367.19;5017187;28;20237;-85
2021/07/27 07:18:49;;;;;;;2.53;2.33;;;;;;;29.05;40.03;99367.28;5001370;28;20317;-86
2021/07/27 07:21:16;;;;;;;2.53;2.33;;;;;;;29.13;40.72;99369.09;5017543;28;20334;-86
2021/07/27 07:23:43;;;;;;;2.70;2.50;;;;;;;29.06;39.80;99369.69;5034116;28;20231;-85
2021/07/27 07:26:09;;;;;;;2.78;2.53;;;;;;;29.17;39.86;99373.56;5017147;28;20233;-85
2021/07/27 07:28:37;;;;;;;3.70;2.50;;;;;;;29.18;39.62;99375.19;5017710;28;20601;-85
2021/07/27 07:31:10;;;;;;;2.75;2.45;;;;;;;29.09;39.12;99362.66;4992752;28;20282;-86
2021/07/27 07:33:37;;;;;;;2.85;2.65;;;;;;;29.22;39.82;99361.47;4991432;28;20286;-86
2021/07/27 07:36:11;;;;;;;3.60;2.30;;;;;;;29.33;40.96;99370.09;5010699;28;20318;-85
2021/07/27 07:38:39;;;;;;;2.88;2.67;;;;;;;29.27;39.71;99372.28;4997894;28;20626;-85
2021/07/27 07:41:10;;;;;;;3.80;2.60;;;;;;;29.42;40.27;99373.53;4981425;28;20274;-86
2021/07/27 07:43:38;;;;;;;4.03;2.92;;;;;;;29.21;41.64;99368.16;5007473;28;20619;-85
2021/07/27 07:46:05;;;;;;;2.83;2.58;;;;;;;28.47;42.23;99355.59;5016835;28;20235;-86
2021/07/27 07:48:32;;;;;;;2.75;2.55;;;;;;;28.35;43.21;99361.09;5001184;28;20530;-87
2021/07/27 07:50:59;;;;;;;2.95;2.50;;;;;;;28.37;43.26;99370.63;5000752;28;20222;-85
2021/07/27 07:53:25;;;;;;;3.25;2.90;;;;;;;28.80;41.63;99364.56;5016775;28;20241;-83
2021/07/27 07:55:52;;;;;;;2.85;2.65;;;;;;;28.94;41.43;99366.16;5018320;28;20226;-82
2021/07/27 07:58:19;;;;;;;2.90;2.70;;;;;;;28.81;42.33;99359.84;4991682;28;20628;-83
2021/07/27 08:00:46;;;;;;;2.85;2.65;;;;;;;29.06;41.32;99360.63;4988919;28;20223;-83
2021/07/27 08:03:17;;;;;;;3.03;2.83;;;;;;;28.51;41.88;99377.78;5020553;28;20225;-83
2021/07/27 08:05:44;;;;;;;2.90;2.70;;;;;;;28.62;41.38;99363.16;5036119;28;20445;-83
2021/07/27 08:08:11;;;;;;;3.40;3.03;;;;;;;28.93;41.42;99376.38;5035965;28;20222;-83
2021/07/27 08:10:37;;;;;;;4.43;3.30;;;;;;;28.70;40.31;99366.94;5036536;28;20280;-83
2021/07/27 08:13:04;;;;;;;3.40;3.10;;;;;;;29.02;40.11;99379.03;5019628;28;20246;-84
2021/07/27 08:15:31;;;;;;;3.13;2.92;;;;;;;28.99;40.12;99374.19;5036148;28;20233;-83
2021/07/27 08:17:58;;;;;;;3.33;3.03;;;;;;;28.97;40.38;99377.31;5036182;28;20230;-83
2021/07/27 08:20:25;;;;;;;3.45;3.15;;;;;;;29.16;40.24;99382.97;5019012;28;20233;-82
2021/07/27 08:22:53;;;;;;;3.85;3.10;;;;;;;29.08;40.28;99383.94;5019414;28;20257;-86
2021/07/27 08:25:21;;;;;;;4.13;3.15;;;;;;;29.46;40.37;99375.22;5018554;28;20230;-86
2021/07/27 08:27:48;;;;;;;4.78;3.22;;;;;;;29.38;40.26;99380.91;5034373;28;20257;-86
2021/07/27 08:30:17;;;;;;;4.63;3.20;;;;;;;29.44;41.05;99369.28;5033374;28;20273;-86
2021/07/27 08:32:51;;;;;;;3.50;3.20;;;;;;;29.66;39.52;99378.94;5034616;28;20509;-86
2021/07/27 08:35:22;;;;;;;5.10;3.15;;;;;;;29.50;39.91;99369.81;5018274;28;20235;-86
2021/07/27 08:37:50;;;;;;;4.13;3.67;;;;;;;29.48;40.19;99369.38;5002114;28;20230;-86
2021/07/27 08:40:18;;;;;;;3.80;3.50;;;;;;;29.49;39.58;99373.75;5034640;28;20284;-86
2021/07/27 08:42:46;;;;;;;5.05;3.40;;;;;;;29.75;39.35;99374.06;5015322;28;20230;-86
2021/07/27 08:45:14;;;;;;;4.28;3.78;;;;;;;29.61;38.89;99373.69;4999269;28;20285;-83
2021/07/27 08:47:46;;;;;;;3.60;3.30;;;;;;;29.64;39.90;99356.41;4999476;28;20614;-84
2021/07/27 08:50:14;;;;;;;3.97;3.67;;;;;;;29.29;40.63;99361.69;4984403;28;20381;-82
2021/07/27 08:52:40;;;;;;;4.03;3.63;;;;;;;29.47;38.46;99373.28;5034983;28;20700;-83
2021/07/27 08:55:08;;;;;;;3.60;3.30;;;;;;;29.56;38.48;99383.00;5018172;28;20226;-86
2021/07/27 08:57:42;;;;;;;3.58;3.35;;;;;;;29.10;39.67;99380.84;5034564;28;20261;-86
2021/07/27 09:00:09;;;;;;;3.60;3.30;;;;;;;28.74;39.49;99374.22;5034379;28;20301;-86
2021/07/27 09:02:38;;;;;;;3.92;3.63;;;;;;;28.57;40.85;99371.66;5017967;28;20791;-86
2021/07/27 09:05:04;;;;;;;4.53;3.55;;;;;;;28.65;40.40;99379.00;5034474;28;20283;-86
2021/07/27 09:07:31;;;;;;;3.70;3.40;;;;;;;29.02;41.56;99385.34;5018048;28;20569;-86
2021/07/27 09:09:58;;;;;;;3.85;3.55;;;;;;;28.78;41.41;99391.69;5018378;28;20223;-85
2021/07/27 09:12:25;;;;;;;3.70;3.40;;;;;;;28.74;40.43;99388.00;5016859;28;20341;-84
2021/07/27 09:14:52;;;;;;;4.25;3.88;;;;;;;28.82;41.12;99395.34;5017563;28;20252;-86
2021/07/27 09:17:28;;;;;;;4.40;4.00;;;;;;;29.02;41.13;99393.63;5018054;28;20321;-85
2021/07/27 09:19:56;;;;;;;5.57;3.25;;;;;;;29.18;40.24;99396.44;5018571;28;20237;-86
2021/07/27 09:22:22;;;;;;;3.63;3.33;;;;;;;28.66;41.12;99397.16;5050081;28;20287;-86
2021/07/27 09:24:49;;;;;;;4.35;3.40;;;;;;;29.17;40.71;99392.88;5033314;28;20253;-85
2021/07/27 09:27:26;;;;;;;4.05;3.60;;;;;;;29.58;39.76;99390.97;5033447;28;20241;-85
2021/07/27 09:29:53;;;;;;;5.20;3.58;;;;;;;29.68;40.27;99385.72;5049851;28;20318;-86
2021/07/27 09:32:20;;;;;;;5.10;3.33;;;;;;;29.88;39.15;99385.84;5033318;28;20403;-85
2021/07/27 09:34:47;;;;;;;3.72;3.35;;;;;;;29.98;38.34;99396.41;5033096;28;20230;-85
2021/07/27 09:37:25;;;;;;;4.00;3.70;;;;;;;30.16;37.85;99389.41;5006943;28;20223;-86
2021/07/27 09:39:53;;;;;;;3.70;3.40;;;;;;;29.89;39.02;99387.50;4998197;28;20234;-85
2021/07/27 09:42:20;;;;;;;4.03;3.63;;;;;;;29.85;37.85;99389.31;5013825;28;20230;-86
2021/07/27 09:44:48;;;;;;;4.70;3.63;;;;;;;30.07;37.59;99391.53;5030230;28;20234;-85
2021/07/27 09:47:15;;;;;;;4.80;3.92;;;;;;;30.54;37.37;99391.56;5030534;28;20276;-86
2021/07/27 09:49:42;;;;;;;3.83;3.53;;;;;;;30.77;37.64;99400.03;5030394;28;20290;-86
2021/07/27 09:52:10;;;;;;;4.82;3.88;;;;;;;31.13;37.43;99404.41;4981118;28;20568;-85
2021/07/27 09:54:37;;;;;;;4.60;3.70;;;;;;;31.09;37.61;99409.06;5013848;28;20231;-86
2021/07/27 09:57:04;;;;;;;4.13;3.83;;;;;;;31.04;38.01;99412.94;4981566;28;20230;-86
2021/07/27 09:59:31;;;;;;;4.07;3.67;;;;;;;30.96;35.73;99406.41;5013829;28;20227;-86
2021/07/27 10:02:05;;;;;;;5.22;4.03;;;;;;;30.99;36.82;99410.41;5013706;28;20298;-87
2021/07/27 10:04:37;;;;;;;3.97;3.67;;;;;;;31.10;36.32;99405.16;5046384;28;20234;-86
2021/07/27 10:07:05;;;;;;;5.22;3.72;;;;;;;31.41;36.20;99388.44;5013487;28;20237;-86
2021/07/27 10:09:34;;;;;;;4.22;3.90;;;;;;;31.58;36.72;99392.78;5013760;28;20710;-86
2021/07/27 10:12:04;;;;;;;5.15;3.70;;;;;;;31.84;35.00;99388.16;5046142;28;20319;-86
2021/07/27 10:15:07;;;;;;;4.13;3.58;;;;;;;32.01;34.86;99378.56;5000996;28;20226;-86
2021/07/27 10:17:34;;;;;;;3.72;3.40;;;;;;;32.07;33.79;99368.78;5033579;28;20248;-86
2021/07/27 10:20:01;;;;;;;4.82;4.00;;;;;;;31.98;34.08;99350.78;5013010;28;20250;-84
2021/07/27 10:22:31;;;;;;;4.93;3.50;;;;;;;31.66;34.83;99352.97;5029773;28;20237;-86
2021/07/27 10:24:58;;;;;;;5.78;3.80;;;;;;;31.74;33.62;99349.97;4997084;28;20222;-86
2021/07/27 10:27:25;;;;;;;4.15;3.78;;;;;;;31.62;36.03;99346.56;5014147;28;20281;-86
2021/07/27 10:30:08;;;;;;;4.03;3.72;;;;;;;32.11;34.71;99355.81;5014110;28;20255;-86
2021/07/27 10:32:35;;;;;;;4.80;3.85;;;;;;;32.36;34.34;99353.47;5046502;28;20230;-86
2021/07/27 10:35:24;;;;;;;4.10;3.70;;;;;;;32.56;32.95;99359.75;5013914;28;20230;-86
2021/07/27 10:37:51;;;;;;;4.18;3.85;;;;;;;32.67;32.72;99347.66;4997959;28;20231;-86
2021/07/27 10:40:30;;;;;;;4.45;4.00;;;;;;;33.02;32.46;99352.13;5013909;28;20222;-86
2021/07/27 10:42:57;;;;;;;5.15;4.20;;;;;;;33.28;32.60;99345.72;5013932;28;20234;-86
2021/07/27 10:45:26;;;;;;;4.10;3.78;;;;;;;33.23;31.69;99366.28;5029927;28;20262;-85
2021/07/27 10:47:54;;;;;;;4.35;3.95;;;;;;;33.07;32.20;99362.91;5014150;28;20230;-86
2021/07/27 10:50:29;;;;;;;4.85;4.35;;;;;;;33.15;32.86;99340.44;5013693;28;20242;-85
2021/07/27 10:53:09;;;;;;;4.40;4.00;;;;;;;33.19;32.37;99346.81;5013976;28;20529;-85
2021/07/27 10:55:37;;;;;;;4.07;3.78;;;;;;;32.96;32.18;99328.63;5045800;28;20234;-86
2021/07/27 10:58:07;;;;;;;5.90;3.85;;;;;;;33.09;32.10;99336.34;5030250;28;20357;-85
2021/07/27 11:00:35;;;;;;;4.60;3.97;;;;;;;33.29;32.77;99344.56;5033485;28;20558;-86
2021/07/27 11:03:02;;;;;;;4.32;3.92;;;;;;;33.09;32.61;99330.81;5027252;28;20584;-86
2021/07/27 11:05:29;;;;;;;4.57;4.15;;;;;;;33.29;31.41;99330.69;5032886;28;20246;-85
2021/07/27 11:07:56;;;;;;;4.93;4.43;;;;;;;33.31;33.38;99328.34;5016926;28;20234;-86
2021/07/27 11:10:25;;;;;;;4.35;3.95;;;;;;;33.34;32.24;99338.69;5032749;28;20246;-86
2021/07/27 11:12:52;;;;;;;4.65;4.15;;;;;;;33.12;32.17;99330.06;5010073;28;20277;-86
2021/07/27 11:15:22;;;;;;;4.82;4.32;;;;;;;33.20;33.54;99330.97;4988403;28;20242;-85
2021/07/27 11:18:00;;;;;;;4.63;4.22;;;;;;;33.29;32.83;99322.34;5013431;28;20233;-86
2021/07/27 11:20:37;;;;;;;4.35;3.92;;;;;;;33.23;33.10;99318.31;5013329;28;20233;-86
2021/07/27 11:23:12;;;;;;;5.68;4.30;;;;;;;33.07;34.21;99319.28;4997293;28;20897;-86
2021/07/27 11:25:40;;;;;;;4.25;3.95;;;;;;;33.05;33.80;99320.84;4997081;28;20238;-86
2021/07/27 11:28:16;;;;;;;4.75;4.35;;;;;;;33.01;32.45;99306.13;4980796;28;20230;-85
2021/07/27 11:30:43;;;;;;;4.53;4.13;;;;;;;33.29;32.32;99309.28;5029688;28;20284;-85
2021/07/27 11:33:14;;;;;;;4.95;4.25;;;;;;;33.33;32.08;99300.97;5029982;28;20236;-85
2021/07/27 11:35:51;;;;;;;3.95;3.65;;;;;;;33.53;31.43;99286.53;5010862;28;20238;-85
2021/07/27 11:38:33;;;;;;;4.18;3.78;;;;;;;33.55;31.70;99300.03;5020280;28;20233;-86
2021/07/27 11:41:06;;;;;;;4.57;4.18;;;;;;;33.36;32.11;99294.69;5020924;28;20229;-86
2021/07/27 11:43:37;;;;;;;4.38;3.97;;;;;;;33.45;31.83;99286.84;5020474;28;20660;-86
2021/07/27 11:46:17;;;;;;;4.13;3.72;;;;;;;33.63;30.65;99302.53;5019649;28;20230;-85
2021/07/27 11:48:45;;;;;;;4.20;3.90;;;;;;;33.66;29.95;99292.63;5037008;28;20618;-86
2021/07/27 11:51:12;;;;;;;4.15;3.75;;;;;;;33.78;31.11;99294.38;5000953;28;20225;-86
2021/07/27 11:53:42;;;;;;;4.03;3.63;;;;;;;33.91;29.99;99290.91;5030211;28;20677;-86
2021/07/27 11:56:18;;;;;;;4.28;3.95;;;;;;;33.78;31.24;99281.28;5036122;28;20237;-86
2021/07/27 11:58:47;;;;;;;4.47;4.07;;;;;;;33.66;30.85;99281.50;5052850;28;20607;-85